createdAt,value
2022-09-09T00:02:03.908Z,0.98
2022-09-09T00:04:33.287Z,0.95
2022-09-09T00:07:05.915Z,1.13
2022-09-09T00:09:39.184Z,1.00
2022-09-09T00:12:11.939Z,1.02
2022-09-09T00:14:43.722Z,0.90
2022-09-09T00:17:18.294Z,1.20
2022-09-09T00:19:51.475Z,0.98
2022-09-09T00:22:20.648Z,1.27
2022-09-09T00:24:49.709Z,0.80
2022-09-09T00:27:22.026Z,0.90
2022-09-09T00:29:54.878Z,1.40
2022-09-09T00:32:25.055Z,1.13
2022-09-09T00:34:55.343Z,1.30
2022-09-09T00:37:26.550Z,1.35
2022-09-09T00:39:57.622Z,1.10
2022-09-09T00:42:27.026Z,1.15
2022-09-09T00:44:58.695Z,1.15
2022-09-09T00:47:40.306Z,1.00
2022-09-09T00:50:13.712Z,0.82
2022-09-09T00:52:44.533Z,1.05
2022-09-09T00:55:16.375Z,1.20
2022-09-09T00:57:47.199Z,1.10
2022-09-09T01:00:24.040Z,1.05
2022-09-09T01:03:05.824Z,1.10
2022-09-09T01:05:37.489Z,1.15
2022-09-09T01:08:08.010Z,1.52
2022-09-09T01:10:42.888Z,1.40
2022-09-09T01:13:14.836Z,1.27
2022-09-09T01:15:44.376Z,1.63
2022-09-09T01:18:16.596Z,1.30
2022-09-09T01:20:48.641Z,1.40
2022-09-09T01:23:28.078Z,1.40
2022-09-09T01:26:13.355Z,1.30
2022-09-09T01:28:41.975Z,0.98
2022-09-09T01:31:12.011Z,1.52
2022-09-09T01:33:40.462Z,1.40
2022-09-09T01:36:10.882Z,1.25
2022-09-09T01:38:39.567Z,1.10
2022-09-09T01:41:09.356Z,1.60
2022-09-09T01:43:37.690Z,1.33
2022-09-09T01:46:06.247Z,1.48
2022-09-09T01:48:34.888Z,1.42
2022-09-09T01:51:03.390Z,1.50
2022-09-09T01:53:31.844Z,1.25
2022-09-09T01:56:08.188Z,1.60
2022-09-09T01:58:46.010Z,1.10
2022-09-09T02:01:18.773Z,1.08
2022-09-09T02:03:50.445Z,1.30
2022-09-09T02:06:25.260Z,1.63
2022-09-09T02:08:55.541Z,1.30
2022-09-09T02:11:25.725Z,1.45
2022-09-09T02:13:57.117Z,1.33
2022-09-09T02:16:26.916Z,1.10
2022-09-09T02:18:58.911Z,1.10
2022-09-09T02:21:29.571Z,1.13
2022-09-09T02:23:59.650Z,1.30
2022-09-09T02:26:28.469Z,1.30
2022-09-09T02:29:00.209Z,1.08
2022-09-09T02:31:28.596Z,1.25
2022-09-09T02:33:58.378Z,1.00
2022-09-09T02:36:28.196Z,1.50
2022-09-09T02:38:56.968Z,1.40
2022-09-09T02:41:27.605Z,1.20
2022-09-09T02:43:55.998Z,1.13
2022-09-09T02:46:40.493Z,1.17
2022-09-09T02:49:11.899Z,1.08
2022-09-09T02:51:43.255Z,1.23
2022-09-09T02:54:14.508Z,1.33
2022-09-09T02:56:44.962Z,1.15
2022-09-09T02:59:16.259Z,1.50
2022-09-09T03:01:46.131Z,1.20
2022-09-09T03:04:14.473Z,1.23
2022-09-09T03:06:42.848Z,1.20
2022-09-09T03:09:11.619Z,1.38
2022-09-09T03:11:43.203Z,1.27
2022-09-09T03:14:14.491Z,1.70
2022-09-09T03:16:44.080Z,1.27
2022-09-09T03:19:13.861Z,1.13
2022-09-09T03:21:45.166Z,1.00
2022-09-09T03:24:13.510Z,1.15
2022-09-09T03:26:42.291Z,1.42
2022-09-09T03:29:10.620Z,1.20
2022-09-09T03:31:39.072Z,1.10
2022-09-09T03:34:07.641Z,1.48
2022-09-09T03:36:37.367Z,1.35
2022-09-09T03:39:05.905Z,1.30
2022-09-09T03:41:35.215Z,1.40
2022-09-09T03:44:03.581Z,1.58
2022-09-09T03:46:32.316Z,1.30
2022-09-09T03:49:01.142Z,1.10
2022-09-09T03:51:29.478Z,1.40
2022-09-09T03:53:59.719Z,1.63
2022-09-09T03:56:28.099Z,1.63
2022-09-09T03:58:56.413Z,1.30
2022-09-09T04:01:24.785Z,1.50
2022-09-09T04:03:53.657Z,1.20
2022-09-09T04:06:22.448Z,1.38
2022-09-09T04:08:50.791Z,1.30
2022-09-09T04:11:20.969Z,1.70
2022-09-09T04:13:50.229Z,1.15
2022-09-09T04:16:18.608Z,1.50
2022-09-09T04:18:47.015Z,1.05
2022-09-09T04:21:17.112Z,1.40
2022-09-09T04:23:45.404Z,1.40
2022-09-09T04:26:13.724Z,1.30
2022-09-09T04:28:43.538Z,1.25
2022-09-09T04:31:12.702Z,1.38
2022-09-09T04:33:41.185Z,1.10
2022-09-09T04:36:10.112Z,1.67
2022-09-09T04:38:38.612Z,1.15
2022-09-09T04:41:07.508Z,1.88
2022-09-09T04:43:36.083Z,1.48
2022-09-09T04:46:06.511Z,1.73
2022-09-09T04:48:34.998Z,1.60
2022-09-09T04:51:04.908Z,1.40
2022-09-09T04:53:35.078Z,1.52
2022-09-09T04:56:07.910Z,1.30
2022-09-09T04:58:36.921Z,1.20
2022-09-09T05:01:07.988Z,1.38
2022-09-09T05:03:36.387Z,1.30
2022-09-09T05:06:05.808Z,1.40
2022-09-09T05:08:34.295Z,1.10
2022-09-09T05:11:02.641Z,1.23
2022-09-09T05:13:32.976Z,1.15
2022-09-09T05:16:01.338Z,1.33
2022-09-09T05:18:31.292Z,0.88
2022-09-09T05:21:02.214Z,1.35
2022-09-09T05:23:30.511Z,1.10
2022-09-09T05:25:59.031Z,1.20
2022-09-09T05:28:27.764Z,1.10
2022-09-09T05:30:59.678Z,1.10
2022-09-09T05:33:28.049Z,1.15
2022-09-09T05:36:05.273Z,1.42
2022-09-09T05:38:34.656Z,1.30
2022-09-09T05:41:05.426Z,1.00
2022-09-09T05:43:34.105Z,1.50
2022-09-09T05:46:03.592Z,1.40
2022-09-09T05:48:33.112Z,1.40
2022-09-09T05:51:01.646Z,1.30
2022-09-09T05:53:33.191Z,1.00
2022-09-09T05:56:02.855Z,1.17
2022-09-09T05:58:31.230Z,1.20
2022-09-09T06:01:07.723Z,1.13
2022-09-09T06:03:36.853Z,0.95
2022-09-09T06:06:07.204Z,1.15
2022-09-09T06:08:38.226Z,1.10
2022-09-09T06:11:07.668Z,1.15
2022-09-09T06:13:36.209Z,1.17
2022-09-09T06:16:05.738Z,1.25
2022-09-09T06:18:34.231Z,1.27
2022-09-09T06:21:04.728Z,1.33
2022-09-09T06:23:33.136Z,1.17
2022-09-09T06:26:07.737Z,1.02
2022-09-09T06:28:36.379Z,1.10
2022-09-09T06:31:06.742Z,0.93
2022-09-09T06:33:36.022Z,1.10
2022-09-09T06:36:04.730Z,1.02
2022-09-09T06:38:33.334Z,1.10
2022-09-09T06:41:02.948Z,0.85
2022-09-09T06:43:32.569Z,0.68
2022-09-09T06:46:01.661Z,0.95
2022-09-09T06:48:30.245Z,1.10
2022-09-09T06:51:06.145Z,0.90
2022-09-09T06:53:35.048Z,1.20
2022-09-09T06:56:03.733Z,1.15
2022-09-09T06:58:33.520Z,1.10
2022-09-09T07:01:05.628Z,0.90
2022-09-09T07:03:34.656Z,1.00
2022-09-09T07:06:03.079Z,0.90
2022-09-09T07:08:32.297Z,1.10
2022-09-09T07:11:10.248Z,0.80
2022-09-09T07:13:43.147Z,0.82
2022-09-09T07:16:12.420Z,0.85
2022-09-09T07:18:42.091Z,0.70
2022-09-09T07:21:11.811Z,0.70
2022-09-09T07:23:40.577Z,0.60
2022-09-09T07:26:11.459Z,0.85
2022-09-09T07:28:40.494Z,0.70
2022-09-09T07:31:18.105Z,0.50
2022-09-09T07:33:47.305Z,0.70
2022-09-09T07:36:16.271Z,0.90
2022-09-09T07:38:46.325Z,0.60
2022-09-09T07:41:16.589Z,0.93
2022-09-09T07:43:45.569Z,0.80
2022-09-09T07:46:16.453Z,0.60
2022-09-09T07:48:46.934Z,0.90
2022-09-09T07:51:19.956Z,0.88
2022-09-09T07:53:49.037Z,0.60
2022-09-09T07:56:18.581Z,0.73
2022-09-09T07:58:48.214Z,0.60
2022-09-09T08:01:19.099Z,0.77
2022-09-09T08:03:47.975Z,0.40
2022-09-09T08:06:16.471Z,0.75
2022-09-09T08:08:44.769Z,0.70
2022-09-09T08:11:15.585Z,0.85
2022-09-09T08:13:44.455Z,0.95
2022-09-09T08:16:13.719Z,0.70
2022-09-09T08:18:44.213Z,0.55
2022-09-09T08:21:13.853Z,0.70
2022-09-09T08:23:43.102Z,0.60
2022-09-09T08:26:14.078Z,1.38
2022-09-09T08:28:42.630Z,0.60
2022-09-09T08:31:12.520Z,1.67
2022-09-09T08:33:40.893Z,1.13
2022-09-09T08:36:13.212Z,0.82
2022-09-09T08:38:41.516Z,1.00
2022-09-09T08:41:27.786Z,0.85
2022-09-09T08:44:03.331Z,0.90
2022-09-09T08:46:37.283Z,0.50
2022-09-09T08:49:08.928Z,0.50
2022-09-09T08:51:38.596Z,0.60
2022-09-09T08:54:07.362Z,0.80
2022-09-09T08:56:36.144Z,0.80
2022-09-09T08:59:06.168Z,0.60
2022-09-09T09:01:47.892Z,0.57
2022-09-09T09:04:31.819Z,0.68
2022-09-09T09:09:33.886Z,0.60
2022-09-09T09:12:03.769Z,0.82
2022-09-09T09:14:35.165Z,1.17
2022-09-09T09:17:05.345Z,0.70
2022-09-09T09:19:35.380Z,1.02
2022-09-09T09:22:08.168Z,0.77
2022-09-09T09:24:44.401Z,0.85
2022-09-09T09:27:15.360Z,0.85
2022-09-09T09:30:03.776Z,0.70
2022-09-09T09:32:36.421Z,0.93
2022-09-09T09:35:07.537Z,0.77
2022-09-09T09:37:37.138Z,0.75
2022-09-09T09:40:13.726Z,0.88
2022-09-09T09:42:51.006Z,0.75
2022-09-09T09:45:21.578Z,0.70
2022-09-09T09:48:04.158Z,0.90
2022-09-09T09:50:35.716Z,1.02
2022-09-09T09:53:06.089Z,0.93
2022-09-09T09:55:36.457Z,1.08
2022-09-09T10:00:39.062Z,0.70
2022-09-09T10:03:16.239Z,0.70
2022-09-09T10:05:48.148Z,0.55
2022-09-09T10:08:18.468Z,0.98
2022-09-09T10:10:59.004Z,0.70
2022-09-09T10:13:29.998Z,0.70
2022-09-09T10:16:07.286Z,0.75
2022-09-09T10:18:50.979Z,0.68
2022-09-09T10:21:24.628Z,0.63
2022-09-09T10:24:01.429Z,0.90
2022-09-09T10:26:37.157Z,0.65
2022-09-09T10:29:13.641Z,1.38
2022-09-09T10:31:47.320Z,0.52
2022-09-09T10:34:21.099Z,0.82
2022-09-09T10:36:52.095Z,0.65
2022-09-09T10:39:26.417Z,0.77
2022-09-09T10:42:03.544Z,0.77
2022-09-09T10:44:46.881Z,0.70
2022-09-09T10:47:29.101Z,0.75
2022-09-09T10:50:14.835Z,0.47
2022-09-09T10:52:49.635Z,0.80
2022-09-09T10:55:20.674Z,0.65
2022-09-09T10:57:52.316Z,0.68
2022-09-09T11:00:22.965Z,0.60
2022-09-09T11:02:53.771Z,0.73
2022-09-09T11:05:23.178Z,0.40
2022-09-09T11:07:54.747Z,0.30
2022-09-09T11:10:26.206Z,0.40
2022-09-09T11:13:00.148Z,0.38
2022-09-09T11:15:31.253Z,0.32
2022-09-09T11:18:01.719Z,0.10
2022-09-09T11:20:30.220Z,0.40
2022-09-09T11:23:00.197Z,0.30
2022-09-09T11:25:30.855Z,0.20
2022-09-09T11:28:08.663Z,0.20
2022-09-09T11:30:56.071Z,0.55
2022-09-09T11:33:35.026Z,0.40
2022-09-09T11:36:09.427Z,0.30
2022-09-09T11:38:44.035Z,0.50
2022-09-09T11:41:12.435Z,1.40
2022-09-09T11:43:44.076Z,1.80
2022-09-09T11:46:13.333Z,1.15
2022-09-09T11:48:44.386Z,1.15
2022-09-09T11:51:17.055Z,3.00
2022-09-09T11:53:53.623Z,1.80
2022-09-09T11:56:29.156Z,0.80
2022-09-09T11:59:00.352Z,0.50
2022-09-09T12:01:32.130Z,0.60
2022-09-09T12:04:21.953Z,0.60
2022-09-09T12:06:53.714Z,0.50
2022-09-09T12:09:27.915Z,0.50
2022-09-09T12:12:07.581Z,0.35
2022-09-09T12:14:40.877Z,0.43
2022-09-09T12:17:12.741Z,0.68
2022-09-09T12:19:41.042Z,0.40
2022-09-09T12:22:16.486Z,0.43
2022-09-09T12:24:48.267Z,0.85
2022-09-09T12:27:21.136Z,0.40
2022-09-09T12:30:04.238Z,0.40
2022-09-09T12:32:32.674Z,0.60
2022-09-09T12:35:02.962Z,0.60
2022-09-09T12:37:33.602Z,0.70
2022-09-09T12:40:03.372Z,0.57
2022-09-09T12:42:36.863Z,0.60
2022-09-09T12:45:19.880Z,0.73
2022-09-09T12:47:50.129Z,0.90
2022-09-09T12:50:20.495Z,0.60
2022-09-09T12:52:49.904Z,0.80
2022-09-09T12:55:21.895Z,1.20
2022-09-09T12:57:52.605Z,0.90
2022-09-09T13:00:23.895Z,0.52
2022-09-09T13:02:54.036Z,0.50
2022-09-09T13:05:23.809Z,0.70
2022-09-09T13:07:52.411Z,1.15
2022-09-09T13:10:36.423Z,0.57
2022-09-09T13:13:15.997Z,0.80
2022-09-09T13:15:50.984Z,0.70
2022-09-09T13:18:21.048Z,0.77
2022-09-09T13:20:49.874Z,0.57
2022-09-09T13:23:20.742Z,0.65
2022-09-09T13:25:55.930Z,0.57
2022-09-09T13:28:25.538Z,0.93
2022-09-09T13:31:03.539Z,0.40
2022-09-09T13:33:34.380Z,0.55
2022-09-09T13:36:04.989Z,0.70
2022-09-09T13:38:35.269Z,0.60
2022-09-09T13:41:05.288Z,0.70
2022-09-09T13:43:34.857Z,0.50
2022-09-09T13:46:05.693Z,0.85
2022-09-09T13:48:34.040Z,0.85
2022-09-09T13:51:04.072Z,0.60
2022-09-09T13:53:32.380Z,0.73
2022-09-09T13:56:01.774Z,1.30
2022-09-09T13:58:30.138Z,0.90
2022-09-09T14:00:58.565Z,0.73
2022-09-09T14:03:28.271Z,0.98
2022-09-09T14:05:56.568Z,0.60
2022-09-09T14:08:26.686Z,0.77
2022-09-09T14:11:00.329Z,0.60
2022-09-09T14:13:28.989Z,0.80
2022-09-09T14:15:57.594Z,0.50
2022-09-09T14:18:26.496Z,0.50
2022-09-09T14:20:56.223Z,0.55
2022-09-09T14:23:25.380Z,0.43
2022-09-09T14:25:54.111Z,0.75
2022-09-09T14:28:39.270Z,0.73
2022-09-09T14:31:11.765Z,0.57
2022-09-09T14:33:40.070Z,1.02
2022-09-09T14:36:09.787Z,0.65
2022-09-09T14:38:40.471Z,0.60
2022-09-09T14:41:08.952Z,0.40
2022-09-09T14:43:37.245Z,0.60
2022-09-09T14:46:08.602Z,0.50
2022-09-09T14:48:37.085Z,0.47
2022-09-09T14:51:10.354Z,0.63
2022-09-09T14:53:39.077Z,0.50
2022-09-09T14:56:08.372Z,0.40
2022-09-09T14:58:36.930Z,0.40
2022-09-09T15:01:06.321Z,0.50
2022-09-09T15:03:34.981Z,0.60
2022-09-09T15:06:07.767Z,0.38
2022-09-09T15:08:41.778Z,0.45
2022-09-09T15:11:11.201Z,0.40
2022-09-09T15:13:40.681Z,0.70
2022-09-09T15:16:09.650Z,0.55
2022-09-09T15:18:41.247Z,0.40
2022-09-09T15:21:09.515Z,0.80
2022-09-09T15:23:39.323Z,0.40
2022-09-09T15:26:07.863Z,0.32
2022-09-09T15:28:39.086Z,0.60
2022-09-09T15:31:08.444Z,0.40
2022-09-09T15:33:38.590Z,0.50
2022-09-09T15:39:39.000Z,1.60
2022-09-09T15:42:16.809Z,2.72
2022-09-09T15:44:45.445Z,1.70
2022-09-09T15:47:16.145Z,1.70
2022-09-09T15:49:44.695Z,0.85
2022-09-09T15:52:13.463Z,0.82
2022-09-09T15:54:44.117Z,0.70
2022-09-09T15:57:14.445Z,0.80
2022-09-09T15:59:42.802Z,0.60
2022-09-09T16:02:12.142Z,0.90
2022-09-09T16:04:41.125Z,0.98
2022-09-09T16:07:09.379Z,0.50
2022-09-09T16:09:37.726Z,0.77
2022-09-09T16:12:10.596Z,0.45
2022-09-09T16:14:39.702Z,0.50
2022-09-09T16:17:08.865Z,0.70
2022-09-09T16:19:37.319Z,0.75
2022-09-09T16:22:07.508Z,0.57
2022-09-09T16:24:35.898Z,0.90
2022-09-09T16:27:04.187Z,0.90
2022-09-09T16:29:33.860Z,0.90
2022-09-09T16:32:04.215Z,0.77
2022-09-09T16:34:34.708Z,0.93
2022-09-09T16:37:03.963Z,0.50
2022-09-09T16:39:32.369Z,0.50
2022-09-09T16:42:00.873Z,0.60
2022-09-09T16:44:29.177Z,0.80
2022-09-09T16:47:00.941Z,0.60
2022-09-09T16:49:29.770Z,0.70
2022-09-09T16:51:59.996Z,0.52
2022-09-09T16:54:30.031Z,0.43
2022-09-09T16:56:58.694Z,0.50
2022-09-09T16:59:27.584Z,0.80
2022-09-09T17:01:55.991Z,0.40
2022-09-09T17:04:28.896Z,0.50
2022-09-09T17:06:58.348Z,0.50
2022-09-09T17:09:30.088Z,0.60
2022-09-09T17:11:59.438Z,0.40
2022-09-09T17:14:27.788Z,0.70
2022-09-09T17:16:56.070Z,0.50
2022-09-09T17:19:25.815Z,0.45
2022-09-09T17:22:15.526Z,0.60
2022-09-09T17:24:42.393Z,0.30
2022-09-09T17:27:10.851Z,0.40
2022-09-09T17:29:39.177Z,0.90
2022-09-09T17:32:08.139Z,0.77
2022-09-09T17:34:38.928Z,0.82
2022-09-09T17:37:07.312Z,0.90
2022-09-09T17:39:35.739Z,4.07
2022-09-09T17:42:04.232Z,2.10
2022-09-09T17:44:33.320Z,0.95
2022-09-09T17:47:01.939Z,1.27
2022-09-09T17:49:30.251Z,1.00
2022-09-09T17:52:00.068Z,0.70
2022-09-09T17:54:28.344Z,0.70
2022-09-09T17:56:58.613Z,0.60
2022-09-09T17:59:27.314Z,0.75
2022-09-09T18:01:55.644Z,1.00
2022-09-09T18:04:24.076Z,0.80
2022-09-09T18:06:53.849Z,0.60
2022-09-09T18:09:24.317Z,0.60
2022-09-09T18:11:54.517Z,0.80
2022-09-09T18:14:24.799Z,0.88
2022-09-09T18:16:53.257Z,0.70
2022-09-09T18:19:22.307Z,0.60
2022-09-09T18:21:50.751Z,0.70
2022-09-09T18:24:20.615Z,0.47
2022-09-09T18:26:50.909Z,0.55
2022-09-09T18:29:20.997Z,0.77
2022-09-09T18:31:50.134Z,0.65
2022-09-09T18:34:20.002Z,0.43
2022-09-09T18:36:49.351Z,0.57
2022-09-09T18:39:19.091Z,0.60
2022-09-09T18:41:48.452Z,0.65
2022-09-09T18:44:20.778Z,1.00
2022-09-09T18:46:50.232Z,0.73
2022-09-09T18:49:18.754Z,0.70
2022-09-09T18:51:47.772Z,0.68
2022-09-09T18:54:17.033Z,0.73
2022-09-09T18:56:47.588Z,0.80
2022-09-09T18:59:17.349Z,0.80
2022-09-09T19:01:50.633Z,0.80
2022-09-09T19:04:20.091Z,0.80
2022-09-09T19:06:51.116Z,1.10
2022-09-09T19:09:20.288Z,0.90
2022-09-09T19:11:48.796Z,0.90
2022-09-09T19:14:20.294Z,1.10
2022-09-09T19:16:53.878Z,0.70
2022-09-09T19:19:26.258Z,0.75
2022-09-09T19:21:58.066Z,0.60
2022-09-09T19:24:31.976Z,0.80
2022-09-09T19:29:36.674Z,0.80
2022-09-09T19:34:55.934Z,1.00
2022-09-09T19:37:25.816Z,0.70
2022-09-09T19:40:04.611Z,0.80
2022-09-09T19:42:36.044Z,0.68
2022-09-09T19:45:07.463Z,0.65
2022-09-09T19:47:35.975Z,0.80
2022-09-09T19:50:05.998Z,0.57
2022-09-09T19:52:45.989Z,0.47
2022-09-09T19:55:18.557Z,0.65
2022-09-09T19:57:48.901Z,0.68
2022-09-09T20:00:26.672Z,0.52
2022-09-09T20:03:15.597Z,0.57
2022-09-09T20:05:56.127Z,0.60
2022-09-09T20:08:32.421Z,0.80
2022-09-09T20:11:02.449Z,0.98
2022-09-09T20:13:34.221Z,0.73
2022-09-09T20:16:05.832Z,0.70
2022-09-09T20:18:39.325Z,0.70
2022-09-09T20:21:10.899Z,0.88
2022-09-09T20:23:42.439Z,0.70
2022-09-09T20:26:16.433Z,0.70
2022-09-09T20:28:48.534Z,0.63
2022-09-09T20:31:19.130Z,0.70
2022-09-09T20:33:54.232Z,0.70
2022-09-09T20:36:29.302Z,0.80
2022-09-09T20:38:59.849Z,0.98
2022-09-09T20:41:34.638Z,0.80
2022-09-09T20:44:06.514Z,0.80
2022-09-09T20:46:38.017Z,0.63
2022-09-09T20:49:11.498Z,0.80
2022-09-09T20:51:50.818Z,0.98
2022-09-09T20:54:31.127Z,0.88
2022-09-09T20:57:04.025Z,0.80
2022-09-09T20:59:45.315Z,0.60
2022-09-09T21:02:13.891Z,0.95
2022-09-09T21:04:47.872Z,0.70
2022-09-09T21:07:21.974Z,0.80
2022-09-09T21:10:04.995Z,0.80
2022-09-09T21:12:37.315Z,0.98
2022-09-09T21:15:09.139Z,0.80
2022-09-09T21:17:57.540Z,0.80
2022-09-09T21:20:32.953Z,0.80
2022-09-09T21:23:06.113Z,1.00
2022-09-09T21:25:48.120Z,1.38
2022-09-09T21:28:23.060Z,0.70
2022-09-09T21:30:52.574Z,0.80
2022-09-09T21:33:28.021Z,0.88
2022-09-09T21:36:02.574Z,0.70
2022-09-09T21:38:41.841Z,0.95
2022-09-09T21:41:13.101Z,0.93
2022-09-09T21:43:48.795Z,1.00
2022-09-09T21:46:24.223Z,0.82
2022-09-09T21:48:52.820Z,0.73
2022-09-09T21:51:29.890Z,0.77
2022-09-09T21:54:01.062Z,0.88
2022-09-09T21:56:32.686Z,0.82
2022-09-09T21:59:09.616Z,0.80
2022-09-09T22:01:40.218Z,1.10
2022-09-09T22:04:09.028Z,0.95
2022-09-09T22:06:37.735Z,1.05
2022-09-09T22:09:09.201Z,1.10
2022-09-09T22:11:37.779Z,1.20
2022-09-09T22:14:12.780Z,1.00
2022-09-09T22:19:18.773Z,1.02
2022-09-09T22:21:55.343Z,0.90
2022-09-09T22:24:47.061Z,0.75
2022-09-09T22:27:27.553Z,1.00
2022-09-09T22:36:03.830Z,0.80
2022-09-09T22:39:05.535Z,0.98
2022-09-09T22:42:07.769Z,1.05
2022-09-09T22:44:51.838Z,0.90
2022-09-09T22:52:56.464Z,0.93
2022-09-09T23:10:18.388Z,0.80
2022-09-09T23:16:31.396Z,0.80
2022-09-09T23:24:44.974Z,0.63
2022-09-09T23:27:46.707Z,0.57
2022-09-09T23:30:29.945Z,0.52
2022-09-09T23:39:15.242Z,0.70
